Tiempo atmosférico en la estación meteorológica de La Oliva, Puerto de Corralejo, Las Palmas (6 m.)



Fecha
DESCASC
Temp. máxima en grados centígrados (hora)
DESCASC
Temp. mínima en grados centígrados (hora)
DESCASC
Temp. media en grados centígrados
DESCASC
Racha de viento máxima en m/sg (hora)
DESCASC
Velocidad máxima media en intervalos de 10 minutos(hora)
DESCASC
Precipitaciones diarias en mm
DESCASC
Precipitaciones de 00:00 a 06:00 en mm
DESCASC
Precipitaciones de 06:00 a 12:00 en mm
DESCASC
Precipitaciones de 12:00 a 18:00 en mm
DESCASC
Precipitaciones de 18:00 a 24:00 en mm
DESCASC
11-08-2020 25.3 (15:00) 22.4 (03:40) 23.8 13.06 (15:40) 9.72 (15:40) 0 0 0 0 0
10-08-2020 24.7 (14:00) 21.9 (07:10) 23.3 13.61 (02:00) 10 (16:30) 0 0 0 0 0
09-08-2020 24.2 (15:00) 21.9 (05:30) 23.1 14.72 (20:00) 10.56 (17:30) 0 0 0 0 0
08-08-2020 24.8 (12:20) 21.9 (06:50) 23.3 13.61 (17:00) 10.56 (17:20) 0 0 0 0 0
07-08-2020 25 (16:10) 22.1 (00:00) 23.6 12.22 (17:40) 10 (17:20) 0 0 0 0 0
06-08-2020 24.3 (14:30) 21.8 (00:00) 23 10.83 (02:00) 7.5 (00:10) 0 0 0 0 0
05-08-2020 24.4 (15:30) 21.8 (00:00) 23.1 11.67 (07:10) 9.17 (01:30) 0 0 0 0 0
04-08-2020 24.4 (11:20) 22.1 (01:40) 23.3 15.83 (02:00) 11.67 (04:30) 0 0 0 0 0
03-08-2020 24.9 (13:40) 22 (07:10) 23.4 15.28 (07:00) 10.83 (08:00) 0 0 0 0 0
02-08-2020 24.7 (14:50) 22.3 (00:00) 23.5 15.56 (16:00) 10.83 (15:40) 0 0 0 0 0
01-08-2020 26.2 (13:00) 22.2 (00:00) 24.2 11.94 (20:00) 8.06 (20:30) 0 0 0 0 0
31-07-2020 25.8 (18:00) 21.5 (06:50) 23.6 9.17 (03:50) 6.11 (04:00) 0 0 0 0 0
30-07-2020 25.7 (11:40) 21.3 (00:00) 23.5 12.78 (20:00) 9.17 (18:00) 0 0 0 0 0
29-07-2020 25.2 (12:30) 21.9 (00:00) 23.6 16.39 (16:00) 10.56 (17:30) 0 0 0 0 0
28-07-2020 26.9 (15:20) 21.8 (00:00) 24.3 15.83 (20:00) 9.44 (19:40) 0 0 0 0 0
27-07-2020 26 (12:20) 21.3 (00:00) 23.6 16.39 (17:00) 11.67 (16:20) 0 0 0 0 0
26-07-2020 25.6 (14:30) 22 (00:00) 23.8 13.33 (19:00) 10 (19:10) 0 0 0 0 0
25-07-2020 24.2 (13:00) 21.5 (00:00) 22.9 15.83 (15:00) 11.39 (16:10) 0 0 0 0 0
24-07-2020 24.5 (13:00) 21.6 (00:00) 23.1 16.11 (16:00) 10.83 (17:50) 0 0 0 0 0
23-07-2020 26.1 (12:10) 21.6 (00:00) 23.9 13.33 (13:00) 10 (18:10) 0 0 0 0 0
22-07-2020 25.6 (14:50) 21.7 (00:00) 23.7 13.89 (17:40) 11.11 (17:50) 0 0 0 0 0
21-07-2020 24.8 (15:10) 21.9 (00:00) 23.3 13.89 (10:00) 10.28 (17:30) 0 0 0 0 0
20-07-2020 24.4 (11:50) 22.1 (00:00) 23.3 16.39 (15:00) 11.67 (16:30) 0 0 0 0 0
19-07-2020 25 (14:50) 22.6 (00:00) 23.8 16.94 (15:00) 10.83 (16:00) 0 0 0 0 0
18-07-2020 25.4 (17:50) 21.8 (00:00) 23.6 11.67 (20:50) 8.89 (23:20) 0 0 0 0 0
17-07-2020 25.5 (16:30) 20.9 (00:00) 23.2 11.94 (16:00) 8.33 (18:20) 0 0 0 0 0
16-07-2020 23.9 (14:00) 21.2 (00:00) 22.6 11.39 (18:00) 8.33 (00:10) 0 0 0 0 0
15-07-2020 24.3 (17:20) 21.5 (00:00) 22.9 16.11 (16:00) 10.56 (15:20) 0 0 0 0 0
14-07-2020 23.9 (15:20) 21.1 (00:00) 22.5 13.33 (23:59) 9.44 (19:30) 0 0 0 0 0

Gráficas

Temp. máximas Temp. mínimas Temp. medias Precipitaciones Rachas de viento máximas Velocidades máximas media en intervalos de 10 minutos

Datos horarios

Fecha y hora oficial Temperatura (ºC) Velocidad del viento (km/h) Dirección del viento Racha (km/h) Dirección de racha Precipitación (mm) Presión (hPa) Tendencia (hPa) Humedad (%)
2020-08-12 23:00:00 -- -- -- -- -- -- -- -- --
2020-08-12 22:00:00 23.1 17 Norte 30 Norte 0 -- -- 73
2020-08-12 21:00:00 23.4 28 Norte 35 Norte 0 -- -- 73
2020-08-12 20:00:00 23.9 21 Nordeste 30 Nordeste 0 -- -- 72
2020-08-12 19:00:00 25.1 13 Norte 33 Norte 0 -- -- 68
2020-08-12 18:00:00 24.8 31 Norte 44 Noroeste 0 -- -- 71
2020-08-12 17:00:00 25.2 23 Norte 34 Norte 0 -- -- 70
2020-08-12 16:00:00 25.1 17 Nordeste 32 Nordeste 0 -- -- 69
2020-08-12 15:00:00 25.4 17 Nordeste 25 Nordeste 0 -- -- 65
2020-08-12 14:00:00 26 10 Norte 17 Norte 0 -- -- 65
2020-08-12 13:00:00 25.3 9 Nordeste 21 Nordeste 0 -- -- 66
2020-08-12 12:00:00 24.6 16 Norte 32 Norte 0 -- -- 66
2020-08-12 11:00:00 23.6 22 Nordeste 36 Nordeste 0 -- -- 70
2020-08-12 10:00:00 23.1 24 Nordeste 38 Nordeste 0 -- -- 72
2020-08-12 09:00:00 22.6 21 Norte 29 Nordeste 0 -- -- 74
2020-08-12 08:00:00 22.3 25 Norte 33 Norte 0 -- -- 76
2020-08-12 07:00:00 22.1 27 Nordeste 37 Norte 0 -- -- 77
2020-08-12 06:00:00 22.1 19 Nordeste 29 Norte 0 -- -- 76
2020-08-12 05:00:00 22.3 20 Norte 27 Norte 0 -- -- 76
2020-08-12 04:00:00 22.2 17 Nordeste 30 Norte 0 -- -- 76
2020-08-12 03:00:00 22.2 23 Norte 33 Norte 0 -- -- 77
2020-08-12 02:00:00 22.5 18 Norte 26 Nordeste 0 -- -- 76
2020-08-12 01:00:00 22.7 21 Norte 33 Norte 0 -- -- 76
2020-08-12 00:00:00 23 14 Norte 24 Norte 0 -- -- 74
2020-08-11 23:00:00 23.1 17 Norte 30 Norte 0 -- -- 74
2020-08-11 22:00:00 23.2 21 Norte 29 Nordeste 0 -- -- 75
2020-08-11 21:00:00 23.2 23 Nordeste 32 Nordeste 0 -- -- 74
2020-08-11 20:00:00 23.8 26 Norte 37 Norte 0 -- -- 73
2020-08-11 19:00:00 24.2 27 Norte 38 Norte 0 -- -- 75
2020-08-11 18:00:00 24.5 32 Norte 41 Norte 0 -- -- 73
2020-08-11 17:00:00 24.5 31 Norte 44 Noroeste 0 -- -- 72
2020-08-11 16:00:00 24.8 35 Norte 47 Noroeste 0 -- -- 70
2020-08-11 15:00:00 25.3 28 Norte 39 Noroeste 0 -- -- 69
2020-08-11 14:00:00 24.8 28 Noroeste 40 Noroeste 0 -- -- 69
2020-08-11 13:00:00 24.8 27 Noroeste 44 Noroeste 0 -- -- 64
2020-08-11 12:00:00 24.3 27 Norte 44 Norte 0 -- -- 66
2020-08-11 11:00:00 24 19 Nordeste 28 Norte 0 -- -- 67
2020-08-11 10:00:00 23.4 23 Norte 37 Norte 0 -- -- 70
2020-08-11 09:00:00 22.9 25 Norte 33 Norte 0 -- -- 72
2020-08-11 08:00:00 22.7 19 Norte 39 Norte 0 -- -- 72
2020-08-11 07:00:00 22.5 29 Norte 37 Norte 0 -- -- 74
2020-08-11 06:00:00 22.6 30 Norte 36 Norte 0 -- -- 75
2020-08-11 05:00:00 22.7 19 Norte 35 Norte 0 -- -- 75
2020-08-11 04:00:00 22.5 28 Norte 44 Norte 0 -- -- 82
2020-08-11 03:00:00 22.7 27 Norte 40 Norte 0 -- -- 81
2020-08-11 02:00:00 22.7 28 Norte 39 Norte 0 -- -- 80
2020-08-11 01:00:00 22.9 24 Norte 35 Norte 0 -- -- 82
2020-08-11 00:00:00 22.8 28 Norte 40 Norte 0 -- -- 83
2020-08-10 23:00:00 22.8 23 Norte 34 Norte 0 -- -- 84
2020-08-10 22:00:00 22.8 26 Norte 38 Norte 0 -- -- 84
2020-08-10 21:00:00 22.9 26 Norte 40 Norte 0 -- -- 84
2020-08-10 20:00:00 23.5 27 Norte 42 Norte 0 -- -- 78
2020-08-10 19:00:00 23.8 32 Norte 43 Norte 0 -- -- 76
2020-08-10 18:00:00 23.9 36 Noroeste 45 Noroeste 0 -- -- 73
2020-08-10 17:00:00 24.2 33 Noroeste 46 Noroeste 0 -- -- 73
2020-08-10 16:00:00 24.3 35 Noroeste 45 Noroeste 0 -- -- 70
2020-08-10 15:00:00 24.6 31 Noroeste 45 Noroeste 0 -- -- 70
2020-08-10 14:00:00 24.7 33 Norte 45 Norte 0 -- -- 71
2020-08-10 13:00:00 24.5 31 Norte 40 Norte 0 -- -- 72
2020-08-10 12:00:00 24.4 25 Norte 33 Noroeste 0 -- -- 73
2020-08-10 11:00:00 23.8 23 Norte 35 Norte 0 -- -- 73
2020-08-10 10:00:00 23.2 13 Norte 30 Norte 0 -- -- 77
2020-08-10 09:00:00 22.5 20 Norte 40 Norte 0 -- -- 82
2020-08-10 08:00:00 22.1 25 Norte 39 Norte 0 -- -- 87
2020-08-10 07:00:00 22 31 Norte 40 Norte 0 -- -- 86
2020-08-10 06:00:00 22.2 30 Norte 39 Norte 0 -- -- 87
2020-08-10 05:00:00 22.2 26 Norte 36 Norte 0 -- -- 87
2020-08-10 04:00:00 22.2 30 Norte 48 Norte 0 -- -- 86
2020-08-10 03:00:00 22.2 27 Norte 43 Norte 0 -- -- 86
2020-08-10 02:00:00 22.2 31 Norte 49 Norte 0 -- -- 85
2020-08-10 01:00:00 22.4 31 Norte 44 Norte 0 -- -- 83
2020-08-10 00:00:00 22.5 34 Norte 44 Norte 0 -- -- 80
2020-08-09 23:00:00 22.4 32 Norte 49 Norte 0 -- -- 83
2020-08-09 22:00:00 22.4 33 Norte 44 Norte 0 -- -- 82
2020-08-09 21:00:00 22.5 25 Norte 41 Norte 0 -- -- 82
2020-08-09 20:00:00 22.9 32 Norte 53 Norte 0 -- -- 81
2020-08-09 19:00:00 23.4 32 Norte 44 Noroeste 0 -- -- 79
2020-08-09 18:00:00 23.4 36 Noroeste 46 Noroeste 0 -- -- 76
2020-08-09 17:00:00 23.9 35 Noroeste 45 Noroeste 0 -- -- 75
2020-08-09 16:00:00 24.2 33 Noroeste 43 Norte 0 -- -- 75
2020-08-09 15:00:00 24.2 34 Noroeste 49 Noroeste 0 -- -- 74
2020-08-09 14:00:00 24.1 33 Noroeste 42 Noroeste 0 -- -- 75
2020-08-09 13:00:00 24 33 Noroeste 44 Noroeste 0 -- -- 77
2020-08-09 12:00:00 23.9 24 Norte 36 Norte 0 -- -- 80
2020-08-09 11:00:00 23.6 27 Norte 38 Norte 0 -- -- 81
2020-08-09 10:00:00 23.1 26 Norte 42 Norte 0 -- -- 83
2020-08-09 09:00:00 22.2 28 Norte 38 Norte 0 -- -- 86
2020-08-09 08:00:00 22.2 28 Norte 39 Norte 0 -- -- 86
2020-08-09 07:00:00 22.2 24 Norte 37 Norte 0 -- -- 86
2020-08-09 06:00:00 22.3 24 Norte 35 Norte 0 -- -- 86
2020-08-09 05:00:00 22.1 26 Norte 38 Norte 0 -- -- 85
2020-08-09 04:00:00 22.1 25 Norte 41 Norte 0 -- -- 86
2020-08-09 03:00:00 22.2 23 Norte 39 Norte 0 -- -- 85
2020-08-09 02:00:00 22.3 31 Norte 51 Norte 0 -- -- 85
2020-08-09 01:00:00 22.5 23 Norte 34 Norte 0 -- -- 84
2020-08-09 00:00:00 22.4 26 Norte 38 Norte 0 -- -- 84
2020-08-08 23:00:00 22.3 26 Norte 38 Norte 0 -- -- 85
2020-08-08 22:00:00 22.3 30 Norte 40 Norte 0 -- -- 84
2020-08-08 21:00:00 22.3 29 Norte 41 Norte 0 -- -- 82
2020-08-08 20:00:00 22.7 30 Norte 46 Noroeste 0 -- -- 79
2020-08-08 19:00:00 23.3 35 Norte 44 Noroeste 0 -- -- 75
2020-08-08 18:00:00 23.8 33 Noroeste 45 Norte 0 -- -- 74
2020-08-08 17:00:00 24 33 Noroeste 49 Noroeste 0 -- -- 72
2020-08-08 16:00:00 24.3 35 Noroeste 44 Norte 0 -- -- 70
2020-08-08 15:00:00 24.6 32 Noroeste 45 Noroeste 0 -- -- 69
2020-08-08 14:00:00 24.2 33 Norte 41 Norte 0 -- -- 69
2020-08-08 13:00:00 24.3 29 Noroeste 38 Noroeste 0 -- -- 72
2020-08-08 12:00:00 24.4 16 Norte 27 Norte 0 -- -- 71
2020-08-08 11:00:00 23.8 17 Norte 31 Norte 0 -- -- 74
2020-08-08 10:00:00 22.7 22 Norte 30 Norte 0 -- -- 77
2020-08-08 09:00:00 22.3 23 Norte 40 Norte 0 -- -- 78
2020-08-08 08:00:00 22 32 Norte 44 Norte 0 -- -- 79
2020-08-08 07:00:00 22 29 Norte 39 Norte 0 -- -- 81
2020-08-08 06:00:00 22.1 29 Norte 40 Norte 0 -- -- 80
2020-08-08 05:00:00 22.1 28 Norte 38 Norte 0 -- -- 81
2020-08-08 04:00:00 22 29 Norte 41 Norte 0 -- -- 80
2020-08-08 03:00:00 22.2 23 Norte 33 Norte 0 -- -- 81
2020-08-08 02:00:00 22.4 26 Norte 36 Norte 0 -- -- 80
2020-08-08 01:00:00 22.3 30 Norte 44 Norte 0 -- -- 78
2020-08-08 00:00:00 22.5 24 Norte 39 Norte 0 -- -- 79
2020-08-07 23:00:00 22.8 26 Norte 38 Norte 0 -- -- 79
2020-08-07 22:00:00 22.6 28 Norte 36 Norte 0 -- -- 79
2020-08-07 21:00:00 22.6 29 Norte 37 Noroeste 0 -- -- 79
2020-08-07 20:00:00 23.2 27 Norte 36 Noroeste 0 -- -- 76
2020-08-07 19:00:00 23.7 28 Noroeste 41 Norte 0 -- -- 73
2020-08-07 18:00:00 23.8 34 Noroeste 44 Noroeste 0 -- -- 71
2020-08-07 17:00:00 24 33 Noroeste 41 Noroeste 0 -- -- 71
2020-08-07 16:00:00 24.2 27 Noroeste 35 Norte 0 -- -- 68
2020-08-07 15:00:00 24.7 22 Norte 39 Norte 0 -- -- 69
2020-08-07 14:00:00 24.1 28 Norte 42 Norte 0 -- -- 70
2020-08-07 13:00:00 24.2 25 Noroeste 35 Noroeste 0 -- -- 70
2020-08-07 12:00:00 24.2 23 Noroeste 31 Noroeste 0 -- -- 71
2020-08-07 11:00:00 23.6 18 Norte 31 Norte 0 -- -- 73
2020-08-07 10:00:00 22.5 23 Norte 32 Norte 0 -- -- 76
2020-08-07 09:00:00 22.4 22 Norte 30 Norte 0 -- -- 80
2020-08-07 08:00:00 22.4 25 Norte 39 Norte 0 -- -- 77
2020-08-07 07:00:00 22.2 24 Norte 30 Norte 0 -- -- 80
2020-08-07 06:00:00 22.4 19 Norte 28 Norte 0 -- -- 80
2020-08-07 05:00:00 22.3 20 Norte 33 Norte 0 -- -- 78
2020-08-07 04:00:00 22.2 25 Norte 35 Norte 0 -- -- 79
2020-08-07 03:00:00 22.3 22 Norte 29 Norte 0 -- -- 81
2020-08-07 02:00:00 22.5 22 Norte 31 Norte 0 -- -- 79
2020-08-07 01:00:00 22.6 23 Norte 32 Norte 0 -- -- 78
2020-08-07 00:00:00 22.7 22 Norte 31 Norte 0 -- -- 78
2020-08-06 23:00:00 22.6 20 Norte 36 Norte 0 -- -- 77
2020-08-06 22:00:00 22.8 26 Norte 39 Norte 0 -- -- 77
2020-08-06 21:00:00 22.9 23 Norte 36 Noroeste 0 -- -- 75
2020-08-06 20:00:00 23.3 23 Norte 38 Norte 0 -- -- 73
2020-08-06 19:00:00 23.2 22 Noroeste 33 Noroeste 0 -- -- 70
2020-08-06 18:00:00 24.2 22 Noroeste 32 Noroeste 0 -- -- 68
2020-08-06 17:00:00 24 22 Noroeste 33 Noroeste 0 -- -- 67
2020-08-06 16:00:00 24.1 25 Noroeste 33 Noroeste 0 -- -- 66
2020-08-06 15:00:00 24 22 Noroeste 33 Noroeste 0 -- -- 66
2020-08-06 14:00:00 24 23 Noroeste 32 Noroeste 0 -- -- 64
2020-08-06 13:00:00 24 19 Noroeste 33 Noroeste 0 -- -- 63
2020-08-06 12:00:00 23.7 24 Noroeste 35 Norte 0 -- -- 63
2020-08-06 11:00:00 23.6 22 Noroeste 30 Noroeste 0 -- -- 66
2020-08-06 10:00:00 22.8 23 Norte 36 Noroeste 0 -- -- 71
2020-08-06 09:00:00 22.2 19 Norte 34 Norte 0 -- -- 73
2020-08-06 08:00:00 21.9 23 Noroeste 32 Norte 0 -- -- 73
2020-08-06 07:00:00 22.2 15 Norte 33 Norte 0 -- -- 75
2020-08-06 06:00:00 22.1 17 Norte 31 Norte 0 -- -- 75
2020-08-06 05:00:00 22.2 23 Norte 38 Norte 0 -- -- 77
2020-08-06 04:00:00 22.3 22 Norte 32 Norte 0 -- -- 75
2020-08-06 03:00:00 22.4 17 Norte 29 Norte 0 -- -- 79
2020-08-06 02:00:00 22.2 26 Norte 39 Norte 0 -- -- 78
2020-08-06 01:00:00 22.5 19 Norte 37 Norte 0 -- -- 81
2020-08-06 00:00:00 22.5 24 Norte 33 Norte 0 -- -- 80
2020-08-05 23:00:00 22.7 23 Norte 33 Norte 0 -- -- 80
2020-08-05 22:00:00 22.7 27 Norte 37 Norte 0 -- -- 77
2020-08-05 21:00:00 22.9 25 Noroeste 38 Norte 0 -- -- 74
2020-08-05 20:00:00 23 26 Norte 35 Norte 0 -- -- 72
2020-08-05 19:00:00 23.4 23 Noroeste 35 Noroeste 0 -- -- 70
2020-08-05 18:00:00 23.8 26 Noroeste 35 Noroeste 0 -- -- 67
2020-08-05 17:00:00 24.3 24 Noroeste 37 Noroeste 0 -- -- 64
2020-08-05 16:00:00 24.2 23 Noroeste 35 Noroeste 0 -- -- 69
2020-08-05 15:00:00 24.2 24 Noroeste 34 Noroeste 0 -- -- 67
2020-08-05 14:00:00 24.1 24 Noroeste 36 Noroeste 0 -- -- 70
2020-08-05 13:00:00 24 27 Noroeste 36 Norte 0 -- -- 71
2020-08-05 12:00:00 23.8 26 Norte 35 Noroeste 0 -- -- 72
2020-08-05 11:00:00 23.4 23 Noroeste 35 Norte 0 -- -- 75
2020-08-05 10:00:00 23.1 26 Norte 37 Norte 0 -- -- 76
2020-08-05 09:00:00 22.4 25 Norte 36 Norte 0 -- -- 81
2020-08-05 08:00:00 22.2 25 Norte 42 Norte 0 -- -- 82
2020-08-05 07:00:00 21.9 28 Norte 37 Norte 0 -- -- 83
2020-08-05 06:00:00 22 24 Norte 36 Norte 0 -- -- 84
2020-08-05 05:00:00 22 30 Norte 39 Norte 0 -- -- 83
2020-08-05 04:00:00 22.2 27 Norte 35 Norte 0 -- -- 83
2020-08-05 03:00:00 22.2 21 Norte 36 Norte 0 -- -- 85
2020-08-05 02:00:00 22.3 27 Norte 41 Norte 0 -- -- 87
2020-08-05 01:00:00 22.3 24 Norte 39 Norte 0 -- -- 87
2020-08-05 00:00:00 22.4 29 Norte 40 Norte 0 -- -- 87
2020-08-04 23:00:00 22.6 22 Norte 40 Norte 0 -- -- 87
2020-08-04 22:00:00 22.6 32 Norte 55 Norte 0 -- -- 85
2020-08-04 21:00:00 22.9 31 Norte 44 Norte 0 -- -- 85
2020-08-04 20:00:00 23.4 28 Norte 46 Norte 0 -- -- 84
2020-08-04 19:00:00 23.7 32 Norte 45 Noroeste 0 -- -- 83
2020-08-04 18:00:00 24 35 Norte 48 Norte 0 -- -- 82
2020-08-04 17:00:00 23.9 38 Norte 54 Norte 0 -- -- 83
2020-08-04 16:00:00 23.9 37 Noroeste 50 Norte 0 -- -- 83
2020-08-04 15:00:00 24 37 Norte 51 Norte 0 -- -- 82
2020-08-04 14:00:00 23.9 38 Noroeste 46 Noroeste 0 -- -- 83
2020-08-04 13:00:00 24 35 Noroeste 53 Noroeste 0 -- -- 82
2020-08-04 12:00:00 24.2 33 Norte 45 Noroeste 0 -- -- 82
2020-08-04 11:00:00 24 29 Norte 44 Norte 0 -- -- 81
2020-08-04 10:00:00 23.6 24 Norte 33 Norte 0 -- -- 83
2020-08-04 09:00:00 23.4 17 Norte 35 Norte 0 -- -- 85
2020-08-04 08:00:00 22.4 24 Norte 40 Norte 0 -- -- 90
2020-08-04 07:00:00 22.4 32 Norte 40 Norte 0 -- -- 88
2020-08-04 06:00:00 22.3 30 Norte 48 Norte 0 -- -- 90
2020-08-04 05:00:00 22.3 36 Norte 55 Norte 0 -- -- 90
2020-08-04 04:00:00 22.3 41 Norte 54 Norte 0 -- -- 89
2020-08-04 03:00:00 22.2 37 Norte 54 Norte 0 -- -- 89
2020-08-04 02:00:00 22.3 31 Norte 57 Norte 0 -- -- 91
2020-08-04 01:00:00 22.2 31 Norte 45 Norte 0 -- -- 91
2020-08-04 00:00:00 22.2 32 Norte 44 Norte 0 -- -- 92
2020-08-03 23:00:00 22.4 30 Norte 43 Norte 0 -- -- 91
2020-08-03 22:00:00 22.5 31 Norte 42 Norte 0 -- -- 91
2020-08-03 21:00:00 22.6 33 Norte 48 Noroeste 0 -- -- 91
2020-08-03 20:00:00 23 33 Norte 53 Noroeste 0 -- -- 88
2020-08-03 19:00:00 23.5 35 Norte 48 Norte 0 -- -- 87
2020-08-03 18:00:00 23.8 34 Norte 42 Noroeste 0 -- -- 87
2020-08-03 17:00:00 24 31 Norte 42 Noroeste 0 -- -- 85
2020-08-03 16:00:00 24.2 37 Norte 48 Norte 0 -- -- 83
2020-08-03 15:00:00 24.6 32 Norte 55 Norte 0 -- -- 81
2020-08-03 14:00:00 24.8 30 Norte 42 Norte 0 -- -- 81
2020-08-03 13:00:00 24.7 30 Norte 44 Norte 0 -- -- 81
2020-08-03 12:00:00 24.3 29 Norte 43 Norte 0 -- -- 81
2020-08-03 11:00:00 23.9 31 Norte 50 Norte 0 -- -- 84
2020-08-03 10:00:00 23.3 33 Norte 43 Norte 0 -- -- 87
2020-08-03 09:00:00 22.6 32 Norte 47 Norte 0 -- -- 92
2020-08-03 08:00:00 22.1 39 Norte 53 Norte 0 -- -- 94
2020-08-03 07:00:00 22.1 30 Norte 55 Norte 0 -- -- 94
2020-08-03 06:00:00 22.2 32 Norte 47 Norte 0 -- -- 94
2020-08-03 05:00:00 22.4 29 Norte 44 Norte 0 -- -- 93
2020-08-03 04:00:00 22.5 28 Norte 40 Norte 0 -- -- 93
2020-08-03 03:00:00 22.7 28 Norte 42 Norte 0 -- -- 91
2020-08-03 02:00:00 22.8 27 Norte 38 Norte 0 -- -- 90
2020-08-03 01:00:00 22.9 27 Noroeste 42 Noroeste 0 -- -- 91
2020-08-03 00:00:00 23.1 26 Norte 36 Norte 0 -- -- 90
2020-08-02 23:00:00 23.1 24 Noroeste 33 Norte 0 -- -- 89
2020-08-02 22:00:00 23.2 18 Noroeste 29 Noroeste 0 -- -- 88
2020-08-02 21:00:00 23.4 24 Norte 39 Norte 0 -- -- 90
2020-08-02 20:00:00 23.9 30 Norte 43 Noroeste 0 -- -- 89
2020-08-02 19:00:00 24.2 33 Norte 42 Noroeste 0 -- -- 89
2020-08-02 18:00:00 24.4 34 Norte 55 Norte 0 -- -- 89
2020-08-02 17:00:00 24.5 33 Norte 51 Norte 0 -- -- 89
2020-08-02 16:00:00 24.4 38 Norte 56 Noroeste 0 -- -- 90
2020-08-02 15:00:00 24.6 33 Norte 42 Noroeste 0 -- -- 89
2020-08-02 14:00:00 24.5 32 Noroeste 40 Noroeste 0 -- -- 89
2020-08-02 13:00:00 24.4 31 Noroeste 40 Norte 0 -- -- 89
2020-08-02 12:00:00 24.2 28 Noroeste 36 Norte 0 -- -- 90
2020-08-02 11:00:00 23.9 28 Norte 43 Noroeste 0 -- -- 92
2020-08-02 10:00:00 23.4 28 Noroeste 45 Noroeste 0 -- -- 94
2020-08-02 09:00:00 23 23 Norte 36 Noroeste 0 -- -- 96
2020-08-02 08:00:00 22.5 25 Noroeste 34 Noroeste 0 -- -- 98
2020-08-02 07:00:00 22.4 22 Noroeste 37 Noroeste 0 -- -- 98
2020-08-02 06:00:00 22.4 22 Noroeste 33 Noroeste 0 -- -- 98
2020-08-02 05:00:00 22.5 22 Noroeste 32 Noroeste 0 -- -- 97
2020-08-02 04:00:00 22.5 17 Norte 29 Norte 0 -- -- 96
2020-08-02 03:00:00 22.6 20 Norte 27 Norte 0 -- -- 94
2020-08-02 02:00:00 23 15 Norte 22 Noroeste 0 -- -- 92
2020-08-02 01:00:00 23 18 Norte 26 Norte 0 -- -- 90
2020-08-02 00:00:00 22.9 17 Norte 29 Norte 0 -- -- 92
2020-08-01 23:00:00 23 22 Norte 31 Norte 0 -- -- 93
2020-08-01 22:00:00 23 22 Norte 31 Norte 0 -- -- 93
2020-08-01 21:00:00 23.1 29 Norte 40 Norte 0 -- -- 93
2020-08-01 20:00:00 23.4 27 Noroeste 43 Norte 0 -- -- 90
2020-08-01 19:00:00 24.2 23 Noroeste 35 Norte 0 -- -- 85
2020-08-01 18:00:00 24.6 22 Noroeste 31 Noroeste 0 -- -- 80
2020-08-01 17:00:00 25.4 16 Noroeste 30 Noroeste 0 -- -- 75
2020-08-01 16:00:00 25.1 19 Noroeste 30 Noroeste 0 -- -- 75
2020-08-01 15:00:00 25.2 10 Este 18 Este 0 -- -- 73
2020-08-01 14:00:00 24.9 12 Este 20 Este 0 -- -- 79
2020-08-01 13:00:00 26.2 6 Nordeste 13 Nordeste 0 -- -- 68
2020-08-01 12:00:00 25.1 11 Nordeste 14 Nordeste 0 -- -- 70
2020-08-01 11:00:00 25.1 5 Nordeste 9 Nordeste 0 -- -- 71
2020-08-01 10:00:00 23.8 8 Nordeste 12 Nordeste 0 -- -- 82
2020-08-01 09:00:00 23 8 Nordeste 19 Norte 0 -- -- 87
2020-08-01 08:00:00 22.4 15 Norte 19 Norte 0 -- -- 89
2020-08-01 07:00:00 22.4 12 Norte 22 Norte 0 -- -- 89
2020-08-01 06:00:00 22.3 18 Norte 27 Norte 0 -- -- 91
2020-08-01 05:00:00 22.3 22 Norte 31 Norte 0 -- -- 91
2020-08-01 04:00:00 22.5 15 Norte 22 Noroeste 0 -- -- 88
2020-08-01 03:00:00 22.5 13 Norte 19 Norte 0 -- -- 87
2020-08-01 02:00:00 22.6 9 Nordeste 17 Nordeste 0 -- -- 85
2020-08-01 01:00:00 22.7 12 Nordeste 19 Nordeste 0 -- -- 84
2020-08-01 00:00:00 22.9 14 Este 21 Nordeste 0 -- -- 84
2020-07-31 23:00:00 23 19 Nordeste 27 Nordeste 0 -- -- 82
2020-07-31 22:00:00 23.3 11 Este 22 Sudeste 0 -- -- 80
2020-07-31 21:00:00 23.5 14 Sudeste 21 Sudeste 0 -- -- 76
2020-07-31 20:00:00 23.6 9 Este 16 Este 0 -- -- 76
2020-07-31 19:00:00 24.5 13 Este 16 Este 0 -- -- 72
2020-07-31 18:00:00 25.8 4 Oeste 13 Nordeste 0 -- -- 66
2020-07-31 17:00:00 24 13 Nordeste 18 Nordeste 0 -- -- 72
2020-07-31 16:00:00 24.5 12 Nordeste 17 Nordeste 0 -- -- 70
2020-07-31 15:00:00 25.6 5 Nordeste 14 Norte 0 -- -- 63
2020-07-31 14:00:00 24.4 12 Norte 16 Nordeste 0 -- -- 70
2020-07-31 13:00:00 24.8 10 Este 15 Este 0 -- -- 66
2020-07-31 12:00:00 24.7 6 Norte 13 Norte 0 -- -- 65
2020-07-31 11:00:00 25 4 Nordeste 8 Nordeste 0 -- -- 65
2020-07-31 10:00:00 23.4 5 Nordeste 15 Norte 0 -- -- 74
2020-07-31 09:00:00 22.5 7 Norte 12 Norte 0 -- -- 77
2020-07-31 08:00:00 21.7 10 Norte 18 Norte 0 -- -- 82
2020-07-31 07:00:00 21.6 7 Este 17 Este 0 -- -- 82
2020-07-31 06:00:00 21.7 9 Este 18 Este 0 -- -- 81
2020-07-31 05:00:00 21.7 12 Nordeste 26 Norte 0 -- -- 82
2020-07-31 04:00:00 21.9 22 Norte 33 Noroeste 0 -- -- 82
2020-07-31 03:00:00 22 15 Norte 19 Norte 0 -- -- 79
2020-07-31 02:00:00 22.2 12 Norte 19 Norte 0 -- -- 79
2020-07-31 01:00:00 22.3 17 Norte 24 Nordeste 0 -- -- 78
2020-07-31 00:00:00 22.4 20 Nordeste 26 Nordeste 0 -- -- 79
2020-07-30 23:00:00 22.3 22 Nordeste 25 Norte 0 -- -- 79
2020-07-30 22:00:00 22.5 22 Norte 32 Norte 0 -- -- 79
2020-07-30 21:00:00 22.5 24 Norte 39 Norte 0 -- -- 80
2020-07-30 20:00:00 23 30 Norte 46 Norte 0 -- -- 76
2020-07-30 19:00:00 24.2 5 Este 37 Norte 0 -- -- 71
2020-07-30 18:00:00 23.8 33 Norte 45 Norte 0 -- -- 71
2020-07-30 17:00:00 25.1 12 Este 33 Norte 0 -- -- 67
2020-07-30 16:00:00 24.4 19 Norte 39 Noroeste 0 -- -- 70
2020-07-30 15:00:00 24.5 21 Norte 38 Noroeste 0 -- -- 70
2020-07-30 14:00:00 23.7 13 Nordeste 26 Nordeste 0 -- -- 72
2020-07-30 13:00:00 23.5 22 Nordeste 30 Nordeste 0 -- -- 70
2020-07-30 12:00:00 24.2 13 Este 18 Este 0 -- -- 66
2020-07-30 11:00:00 24.7 3 Norte 10 Norte 0 -- -- 65
2020-07-30 10:00:00 23.1 8 Norte 11 Norte 0 -- -- 68
2020-07-30 09:00:00 22.2 10 Norte 16 Norte 0 -- -- 72
2020-07-30 08:00:00 21.4 8 Norte 19 Norte 0 -- -- 76
2020-07-30 07:00:00 21.4 16 Nordeste 24 Nordeste 0 -- -- 75
2020-07-30 06:00:00 21.4 14 Nordeste 31 Norte 0 -- -- 76
2020-07-30 05:00:00 22 11 Nordeste 23 Norte 0 -- -- 75
2020-07-30 04:00:00 21.8 15 Norte 27 Norte 0 -- -- 75
2020-07-30 03:00:00 21.9 22 Norte 30 Norte 0 -- -- 75
2020-07-30 02:00:00 21.9 17 Nordeste 32 Norte 0 -- -- 75
2020-07-30 01:00:00 22.1 26 Norte 39 Norte 0 -- -- 76
2020-07-30 00:00:00 22.3 23 Norte 37 Norte 0 -- -- 77
2020-07-29 23:00:00 22.4 29 Norte 37 Norte 0 -- -- 77
2020-07-29 22:00:00 22.6 29 Norte 44 Norte 0 -- -- 78
2020-07-29 21:00:00 22.9 33 Norte 40 Norte 0 -- -- 77
2020-07-29 20:00:00 23.4 30 Norte 44 Noroeste 0 -- -- 76
2020-07-29 19:00:00 23.7 33 Norte 46 Noroeste 0 -- -- 74
2020-07-29 18:00:00 24.1 35 Norte 49 Noroeste 0 -- -- 72
2020-07-29 17:00:00 24.4 32 Norte 50 Noroeste 0 -- -- 74
2020-07-29 16:00:00 24.5 36 Norte 59 Noroeste 0 -- -- 73
2020-07-29 15:00:00 24.6 34 Norte 46 Noroeste 0 -- -- 72
2020-07-29 14:00:00 24.6 30 Norte 53 Norte 0 -- -- 70
2020-07-29 13:00:00 24.9 19 Norte 36 Norte 0 -- -- 69
2020-07-29 12:00:00 24.3 13 Nordeste 28 Norte 0 -- -- 70
2020-07-29 11:00:00 24.1 17 Norte 27 Norte 0 -- -- 72
2020-07-29 10:00:00 23.5 15 Norte 29 Nordeste 0 -- -- 74
2020-07-29 09:00:00 22.9 20 Norte 29 Nordeste 0 -- -- 76
2020-07-29 08:00:00 22.2 16 Nordeste 28 Norte 0 -- -- 80
2020-07-29 07:00:00 22.2 20 Norte 33 Norte 0 -- -- 81
2020-07-29 06:00:00 22.1 21 Norte 31 Norte 0 -- -- 81
2020-07-29 05:00:00 22 21 Norte 30 Norte 0 -- -- 81
2020-07-29 04:00:00 22 15 Norte 24 Norte 0 -- -- 82
2020-07-29 03:00:00 22 19 Norte 33 Norte 0 -- -- 82
2020-07-29 02:00:00 22.2 22 Norte 31 Norte 0 -- -- 82
2020-07-29 01:00:00 22.3 21 Norte 31 Norte 0 -- -- 82
2020-07-29 00:00:00 22.4 22 Norte 30 Norte 0 -- -- 81
2020-07-28 23:00:00 22.7 23 Norte 40 Norte 0 -- -- 82
2020-07-28 22:00:00 22.7 31 Norte 47 Norte 0 -- -- 82
2020-07-28 21:00:00 22.9 34 Norte 45 Norte 0 -- -- 82
2020-07-28 20:00:00 23.6 34 Norte 57 Norte 0 -- -- 78
2020-07-28 19:00:00 24.4 27 Norte 37 Norte 0 -- -- 76
2020-07-28 18:00:00 24.8 28 Norte 44 Noroeste 0 -- -- 74
2020-07-28 17:00:00 25.1 31 Norte 41 Norte 0 -- -- 72
2020-07-28 16:00:00 25.8 12 Norte 40 Noroeste 0 -- -- 67
2020-07-28 15:00:00 26.6 8 Norte 42 Noroeste 0 -- -- 64
2020-07-28 14:00:00 25.3 23 Norte 42 Noroeste 0 -- -- 70
2020-07-28 13:00:00 25.6 13 Norte 30 Noroeste 0 -- -- 64
2020-07-28 12:00:00 25.3 9 Norte 23 Norte 0 -- -- 70
2020-07-28 11:00:00 24.7 8 Norte 21 Nordeste 0 -- -- 72
2020-07-28 10:00:00 23.7 13 Nordeste 21 Nordeste 0 -- -- 80
2020-07-28 09:00:00 22.8 12 Nordeste 20 Norte 0 -- -- 84
2020-07-28 08:00:00 22.1 8 Norte 31 Norte 0 -- -- 87
2020-07-28 07:00:00 22.1 22 Norte 36 Norte 0 -- -- 88
2020-07-28 06:00:00 22.1 19 Norte 35 Norte 0 -- -- 88
2020-07-28 05:00:00 22 27 Norte 37 Norte 0 -- -- 89
2020-07-28 04:00:00 22.1 18 Norte 28 Noroeste 0 -- -- 86
2020-07-28 03:00:00 22 6 Este 19 Norte 0 -- -- 86
2020-07-28 02:00:00 22.4 21 Norte 31 Norte 0 -- -- 87
2020-07-28 01:00:00 22.4 8 Norte 12 Norte 0 -- -- 85
2020-07-28 00:00:00 22.6 12 Norte 25 Norte 0 -- -- 86
2020-07-27 23:00:00 22.8 10 Norte 29 Norte 0 -- -- 86
2020-07-27 22:00:00 22.8 23 Norte 40 Norte 0 -- -- 87
2020-07-27 21:00:00 22.9 28 Norte 42 Norte 0 -- -- 86
2020-07-27 20:00:00 23.2 29 Norte 46 Norte 0 -- -- 85
2020-07-27 19:00:00 23.6 33 Norte 45 Noroeste 0 -- -- 82
2020-07-27 18:00:00 24 37 Norte 50 Norte 0 -- -- 79
2020-07-27 17:00:00 24.1 37 Norte 59 Norte 0 -- -- 78
2020-07-27 16:00:00 24.4 37 Norte 51 Noroeste 0 -- -- 76
2020-07-27 15:00:00 24.8 26 Norte 38 Noroeste 0 -- -- 74
2020-07-27 14:00:00 25.5 14 Este 25 Noroeste 0 -- -- 71
2020-07-27 13:00:00 24.8 21 Norte 37 Noroeste 0 -- -- 71
2020-07-27 12:00:00 25.7 3 Norte 12 Norte 0 -- -- 63
2020-07-27 11:00:00 24.9 5 Norte 11 Norte 0 -- -- 67
2020-07-27 08:00:00 -- -- -- -- -- -- -- -- --
2020-07-27 07:00:00 21.6 12 Norte 26 Norte 0 -- -- 85
2020-07-27 06:00:00 21.6 23 Norte 35 Norte 0 -- -- 86
2020-07-27 05:00:00 21.7 17 Norte 31 Norte 0 -- -- 84
2020-07-27 04:00:00 21.9 30 Norte 45 Norte 0 -- -- 86
2020-07-27 03:00:00 22 18 Norte 26 Norte 0 -- -- 85
2020-07-27 02:00:00 22.1 17 Nordeste 27 Norte 0 -- -- 85
2020-07-27 01:00:00 22.2 24 Norte 35 Norte 0 -- -- 86
2020-07-27 00:00:00 22.5 16 Norte 30 Norte 0 -- -- 83
2020-07-26 23:00:00 22.5 24 Norte 40 Norte 0 -- -- 84
2020-07-26 22:00:00 22.5 32 Norte 44 Norte 0 -- -- 83
2020-07-26 21:00:00 22.8 29 Norte 41 Norte 0 -- -- 82
2020-07-26 20:00:00 23.2 32 Norte 44 Noroeste 0 -- -- 78
2020-07-26 19:00:00 23.6 33 Norte 48 Norte 0 -- -- 77
2020-07-26 18:00:00 24.4 18 Norte 31 Noroeste 0 -- -- 70
2020-07-26 17:00:00 24.5 25 Norte 40 Norte 0 -- -- 69
2020-07-26 16:00:00 25.4 10 Norte 24 Noroeste 0 -- -- 67
2020-07-26 15:00:00 24.9 12 Norte 38 Norte 0 -- -- 69
2020-07-26 14:00:00 24.9 17 Norte 36 Norte 0 -- -- 68
2020-07-26 13:00:00 24.6 22 Norte 33 Norte 0 -- -- 75
2020-07-26 12:00:00 23.7 17 Norte 30 Norte 0 -- -- 76
2020-07-26 11:00:00 22.7 24 Norte 33 Norte 0 -- -- 83
2020-07-26 10:00:00 22.3 25 Norte 41 Norte 0 -- -- 84
2020-07-26 09:00:00 22.3 25 Norte 35 Norte 0 -- -- 84
2020-07-26 08:00:00 22.1 26 Norte 37 Norte 0 -- -- 84
2020-07-26 07:00:00 22.1 31 Norte 40 Norte 0 -- -- 84
2020-07-26 06:00:00 22.1 28 Norte 43 Norte 0 -- -- 83
2020-07-26 05:00:00 22 28 Norte 40 Norte 0 -- -- 84
2020-07-26 04:00:00 22 32 Norte 42 Norte 0 -- -- 85
2020-07-26 03:00:00 22.2 28 Norte 45 Norte 0 -- -- 85
2020-07-26 02:00:00 22.2 25 Norte 35 Norte 0 -- -- 85
2020-07-26 01:00:00 22.4 27 Norte 37 Norte 0 -- -- 86
2020-07-26 00:00:00 22.3 28 Norte 39 Norte 0 -- -- 87
2020-07-25 23:00:00 22.5 29 Norte 40 Norte 0 -- -- 86
2020-07-25 22:00:00 22.4 29 Norte 47 Norte 0 -- -- 87
2020-07-25 21:00:00 22.7 31 Norte 41 Norte 0 -- -- 86
2020-07-25 20:00:00 23.4 29 Norte 42 Noroeste 0 -- -- 83
2020-07-25 19:00:00 23.5 34 Norte 46 Norte 0 -- -- 82
2020-07-25 18:00:00 23.7 35 Norte 49 Norte 0 -- -- 82
2020-07-25 17:00:00 23.7 37 Norte 50 Noroeste 0 -- -- 80
2020-07-25 16:00:00 23.7 40 Noroeste 54 Noroeste 0 -- -- 80
2020-07-25 15:00:00 24.1 37 Norte 57 Noroeste 0 -- -- 77
2020-07-25 14:00:00 24.1 35 Norte 43 Norte 0 -- -- 78
2020-07-25 13:00:00 24.2 31 Norte 40 Noroeste 0 -- -- 79
2020-07-25 12:00:00 23.8 30 Norte 45 Norte 0 -- -- 81
2020-07-25 11:00:00 23.6 28 Norte 41 Norte 0 -- -- 81
2020-07-25 10:00:00 23.1 31 Norte 48 Norte 0 -- -- 84
2020-07-25 09:00:00 22.5 33 Norte 47 Noroeste 0 -- -- 86
2020-07-25 08:00:00 22 28 Norte 39 Norte 0 -- -- 90
2020-07-25 07:00:00 21.7 27 Norte 38 Noroeste 0 -- -- 92
2020-07-25 06:00:00 21.8 26 Norte 39 Norte 0 -- -- 91
2020-07-25 05:00:00 21.9 26 Norte 37 Norte 0 -- -- 92
2020-07-25 04:00:00 21.7 26 Norte 39 Norte 0 -- -- 92
2020-07-25 03:00:00 21.9 24 Norte 39 Norte 0 -- -- 92
2020-07-25 02:00:00 21.9 30 Norte 42 Norte 0 -- -- 91
2020-07-25 01:00:00 21.8 23 Noroeste 38 Noroeste 0 -- -- 91
2020-07-25 00:00:00 21.7 28 Noroeste 52 Noroeste 0 -- -- 91
2020-07-24 23:00:00 21.9 28 Noroeste 43 Noroeste 0 -- -- 91
2020-07-24 22:00:00 22 30 Norte 45 Noroeste 0 -- -- 90
2020-07-24 21:00:00 22.1 30 Noroeste 44 Noroeste 0 -- -- 89
2020-07-24 20:00:00 22.6 34 Norte 49 Norte 0 -- -- 88
2020-07-24 19:00:00 23 37 Norte 47 Noroeste 0 -- -- 88
2020-07-24 18:00:00 23.3 38 Noroeste 57 Noroeste 0 -- -- 86
2020-07-24 17:00:00 23.7 35 Noroeste 57 Noroeste 0 -- -- 84
2020-07-24 16:00:00 23.7 37 Noroeste 58 Noroeste 0 -- -- 84
2020-07-24 15:00:00 24.1 36 Noroeste 56 Noroeste 0 -- -- 81
2020-07-24 14:00:00 24.2 33 Noroeste 51 Noroeste 0 -- -- 82
2020-07-24 13:00:00 24.5 29 Norte 39 Norte 0 -- -- 82
2020-07-24 12:00:00 24.4 24 Norte 33 Norte 0 -- -- 83
2020-07-24 11:00:00 23.6 24 Norte 36 Norte 0 -- -- 85
2020-07-24 10:00:00 22.9 29 Norte 37 Norte 0 -- -- 87
2020-07-24 09:00:00 22.5 25 Norte 41 Norte 0 -- -- 88
2020-07-24 08:00:00 22.1 31 Norte 44 Norte 0 -- -- 90
2020-07-24 07:00:00 21.8 29 Norte 44 Norte 0 -- -- 89
2020-07-24 06:00:00 21.7 29 Norte 41 Norte 0 -- -- 90
2020-07-24 05:00:00 21.6 30 Norte 39 Norte 0 -- -- 91
2020-07-24 04:00:00 21.7 31 Norte 42 Norte 0 -- -- 92
2020-07-24 03:00:00 21.7 30 Norte 40 Norte 0 -- -- 92
2020-07-24 02:00:00 21.8 26 Norte 44 Norte 0 -- -- 91
2020-07-24 01:00:00 21.8 34 Norte 48 Noroeste 0 -- -- 90
2020-07-24 00:00:00 22 33 Norte 42 Norte 0 -- -- 90
2020-07-23 23:00:00 22.2 29 Norte 35 Norte 0 -- -- 90
2020-07-23 22:00:00 22.3 28 Norte 37 Norte 0 -- -- 90
2020-07-23 21:00:00 22.5 26 Norte 45 Norte 0 -- -- 88
2020-07-23 20:00:00 23.1 29 Norte 40 Norte 0 -- -- 86
2020-07-23 19:00:00 23.7 32 Norte 45 Norte 0 -- -- 83
2020-07-23 18:00:00 23.9 35 Norte 44 Norte 0 -- -- 81
2020-07-23 17:00:00 24.3 32 Norte 39 Norte 0 -- -- 79
2020-07-23 16:00:00 25.2 12 Este 43 Noroeste 0 -- -- 74
2020-07-23 15:00:00 24.6 26 Norte 45 Norte 0 -- -- 77
2020-07-23 14:00:00 24.5 27 Norte 46 Norte 0 -- -- 78
2020-07-23 13:00:00 25 27 Norte 48 Norte 0 -- -- 74
2020-07-23 12:00:00 25.9 4 Nordeste 34 Norte 0 -- -- 70
2020-07-23 11:00:00 23.8 22 Norte 33 Norte 0 -- -- 82
2020-07-23 10:00:00 23 25 Norte 36 Norte 0 -- -- 85
2020-07-23 09:00:00 22.4 25 Norte 35 Norte 0 -- -- 88
2020-07-23 08:00:00 21.9 28 Norte 38 Norte 0 -- -- 90
2020-07-23 07:00:00 21.7 30 Norte 39 Norte 0 -- -- 91
2020-07-23 06:00:00 21.7 28 Norte 37 Norte 0 -- -- 90
2020-07-23 05:00:00 21.8 26 Norte 38 Norte 0 -- -- 90
2020-07-23 04:00:00 21.9 28 Norte 38 Norte 0 -- -- 91
2020-07-23 03:00:00 22 28 Norte 39 Norte 0 -- -- 91
2020-07-23 02:00:00 22 27 Norte 37 Norte 0 -- -- 91
2020-07-23 01:00:00 22.1 25 Norte 36 Norte 0 -- -- 90
2020-07-23 00:00:00 22.2 29 Norte 39 Norte 0 -- -- 89
2020-07-22 23:00:00 22.4 27 Norte 35 Norte 0 -- -- 88
2020-07-22 22:00:00 22.4 26 Norte 48 Norte 0 -- -- 87
2020-07-22 21:00:00 22.9 27 Norte 38 Norte 0 -- -- 84
2020-07-22 20:00:00 23.5 27 Norte 40 Noroeste 0 -- -- 81
2020-07-22 19:00:00 23.6 32 Norte 46 Noroeste 0 -- -- 80
2020-07-22 18:00:00 23.9 39 Noroeste 50 Noroeste 0 -- -- 78
2020-07-22 17:00:00 24.4 31 Norte 41 Norte 0 -- -- 75
2020-07-22 16:00:00 25 30 Norte 37 Norte 0 -- -- 73
2020-07-22 15:00:00 25 11 Norte 23 Norte 0 -- -- 71
2020-07-22 14:00:00 25.2 9 Norte 26 Nordeste 0 -- -- 70
2020-07-22 13:00:00 25 15 Nordeste 22 Este 0 -- -- 69
2020-07-22 12:00:00 24.3 15 Nordeste 21 Nordeste 0 -- -- 72
2020-07-22 11:00:00 24.1 14 Nordeste 25 Nordeste 0 -- -- 73
2020-07-22 10:00:00 23.3 19 Nordeste 24 Nordeste 0 -- -- 75
2020-07-22 09:00:00 23 4 Nordeste 11 Norte 0 -- -- 73
2020-07-22 08:00:00 22.1 7 Norte 16 Nordeste 0 -- -- 77
2020-07-22 07:00:00 21.8 13 Norte 22 Nordeste 0 -- -- 79
2020-07-22 06:00:00 22 14 Nordeste 25 Norte 0 -- -- 79
2020-07-22 05:00:00 22.2 18 Norte 27 Norte 0 -- -- 79
2020-07-22 04:00:00 22.2 17 Norte 25 Nordeste 0 -- -- 79
2020-07-22 03:00:00 22.5 12 Nordeste 24 Norte 0 -- -- 81
2020-07-22 02:00:00 22.6 13 Norte 26 Norte 0 -- -- 82
2020-07-22 01:00:00 22.5 15 Norte 25 Norte 0 -- -- 79
2020-07-22 00:00:00 22.5 16 Norte 31 Norte 0 -- -- 77
2020-07-21 23:00:00 22.6 26 Norte 36 Norte 0 -- -- 78
2020-07-21 22:00:00 22.4 26 Norte 38 Norte 0 -- -- 80
2020-07-21 21:00:00 22.6 27 Norte 39 Norte 0 -- -- 79
2020-07-21 20:00:00 23.2 29 Norte 47 Norte 0 -- -- 74
2020-07-21 19:00:00 23.4 30 Norte 41 Norte 0 -- -- 72
2020-07-21 18:00:00 23.8 32 Noroeste 44 Norte 0 -- -- 70
2020-07-21 17:00:00 24.2 25 Norte 41 Norte 0 -- -- 68
2020-07-21 16:00:00 24.2 27 Norte 35 Norte 0 -- -- 67
2020-07-21 15:00:00 24.7 20 Norte 39 Noroeste 0 -- -- 66
2020-07-21 14:00:00 24.2 32 Norte 49 Noroeste 0 -- -- 68
2020-07-21 13:00:00 24.4 26 Norte 40 Noroeste 0 -- -- 69
2020-07-21 12:00:00 24 26 Norte 43 Norte 0 -- -- 69
2020-07-21 11:00:00 23.8 26 Norte 39 Norte 0 -- -- 70
2020-07-21 10:00:00 23 30 Norte 50 Norte 0 -- -- 73
2020-07-21 09:00:00 22.4 30 Norte 41 Norte 0 -- -- 73
2020-07-21 08:00:00 22 30 Norte 44 Norte 0 -- -- 74
2020-07-21 07:00:00 22.1 17 Nordeste 30 Norte 0 -- -- 73
2020-07-21 06:00:00 22.2 18 Norte 29 Nordeste 0 -- -- 73
2020-07-21 05:00:00 22.1 22 Norte 29 Norte 0 -- -- 76
2020-07-21 04:00:00 22.2 17 Norte 37 Norte 0 -- -- 79
2020-07-21 03:00:00 22.5 18 Norte 31 Norte 0 -- -- 80
2020-07-21 02:00:00 22.3 21 Norte 40 Norte 0 -- -- 79
2020-07-21 01:00:00 22.5 30 Norte 42 Norte 0 -- -- 79
2020-07-21 00:00:00 22.5 28 Norte 38 Norte 0 -- -- 81
2020-07-20 23:00:00 22.5 29 Norte 40 Norte 0 -- -- 82
2020-07-20 22:00:00 22.5 30 Norte 40 Norte 0 -- -- 84
2020-07-20 21:00:00 22.7 30 Norte 45 Norte 0 -- -- 84
2020-07-20 20:00:00 23.2 31 Norte 43 Norte 0 -- -- 81
2020-07-20 19:00:00 23.6 32 Norte 46 Noroeste 0 -- -- 80
2020-07-20 18:00:00 23.5 39 Noroeste 51 Norte 0 -- -- 79
2020-07-20 17:00:00 23.7 36 Noroeste 52 Norte 0 -- -- 78
2020-07-20 16:00:00 23.7 39 Noroeste 50 Noroeste 0 -- -- 79
2020-07-20 15:00:00 23.8 39 Noroeste 59 Norte 0 -- -- 79
2020-07-20 14:00:00 23.7 38 Norte 52 Norte 0 -- -- 81
2020-07-20 13:00:00 24.1 31 Norte 44 Norte 0 -- -- 80
2020-07-20 12:00:00 24.3 31 Norte 40 Norte 0 -- -- 81
2020-07-20 11:00:00 24 27 Norte 40 Norte 0 -- -- 84
2020-07-20 10:00:00 23.4 33 Norte 46 Norte 0 -- -- 87
2020-07-20 09:00:00 22.7 32 Norte 50 Norte 0 -- -- 90
2020-07-20 08:00:00 22.3 31 Norte 44 Norte 0 -- -- 92
2020-07-20 07:00:00 22.2 32 Norte 45 Norte 0 -- -- 92
2020-07-20 06:00:00 22.2 30 Norte 42 Norte 0 -- -- 93
2020-07-20 05:00:00 22.4 33 Norte 45 Noroeste 0 -- -- 94
2020-07-20 04:00:00 22.4 24 Noroeste 37 Noroeste 0 -- -- 95
2020-07-20 03:00:00 22.6 25 Noroeste 37 Noroeste 0 -- -- 95
2020-07-20 02:00:00 22.8 30 Norte 46 Norte 0 -- -- 95
2020-07-20 01:00:00 22.9 29 Noroeste 43 Noroeste 0 -- -- 93
2020-07-20 00:00:00 22.9 24 Noroeste 44 Noroeste 0 -- -- 92
2020-07-19 23:00:00 22.9 32 Noroeste 49 Noroeste 0 -- -- 93
2020-07-19 22:00:00 22.9 30 Noroeste 50 Noroeste 0 -- -- 94
2020-07-19 21:00:00 23.1 33 Noroeste 52 Noroeste 0 -- -- 93
2020-07-19 20:00:00 23.6 33 Noroeste 48 Noroeste 0 -- -- 89
2020-07-19 19:00:00 24.3 28 Noroeste 45 Noroeste 0 -- -- 84
2020-07-19 18:00:00 24.4 35 Noroeste 48 Noroeste 0 -- -- 84
2020-07-19 17:00:00 24.8 35 Noroeste 48 Norte 0 -- -- 81
2020-07-19 16:00:00 24.8 39 Noroeste 46 Noroeste 0 -- -- 82
2020-07-19 15:00:00 25 32 Noroeste 61 Noroeste 0 -- -- 81
2020-07-19 14:00:00 24.9 29 Noroeste 44 Noroeste 0 -- -- 81
2020-07-19 13:00:00 24.9 32 Noroeste 40 Noroeste 0 -- -- 80
2020-07-19 12:00:00 24.9 27 Noroeste 37 Noroeste 0 -- -- 79
2020-07-19 11:00:00 24.5 21 Noroeste 32 Noroeste 0 -- -- 83
2020-07-19 10:00:00 23.9 25 Noroeste 37 Noroeste 0 -- -- 87
2020-07-19 09:00:00 23.6 17 Noroeste 30 Noroeste 0 -- -- 88
2020-07-19 08:00:00 23 16 Oeste 32 Noroeste 0 -- -- 88
2020-07-19 07:00:00 23 21 Noroeste 29 Noroeste 0 -- -- 86
2020-07-19 06:00:00 23 12 Noroeste 19 Noroeste 0 -- -- 85
2020-07-19 05:00:00 22.8 15 Noroeste 30 Noroeste 0 -- -- 90
2020-07-19 04:00:00 22.7 23 Noroeste 37 Norte 0 -- -- 93
2020-07-19 03:00:00 22.7 27 Noroeste 37 Noroeste 0 -- -- 95
2020-07-19 02:00:00 23 29 Norte 39 Noroeste 0 -- -- 93
2020-07-19 01:00:00 23.3 27 Norte 37 Noroeste 0 -- -- 91
2020-07-19 00:00:00 23.2 25 Noroeste 39 Noroeste 0 -- -- 93
2020-07-18 23:00:00 23.1 27 Noroeste 39 Noroeste 0 -- -- 94
2020-07-18 22:00:00 23.2 27 Noroeste 40 Noroeste 0 -- -- 94
2020-07-18 21:00:00 23.3 28 Noroeste 42 Noroeste 0 -- -- 93
2020-07-18 20:00:00 23.8 25 Noroeste 39 Noroeste 0 -- -- 90
2020-07-18 19:00:00 24.4 27 Noroeste 39 Noroeste 0 -- -- 86
2020-07-18 18:00:00 25.4 17 Noroeste 38 Noroeste 0 -- -- 81
2020-07-18 17:00:00 24.6 29 Noroeste 41 Noroeste 0 -- -- 88
2020-07-18 16:00:00 24.5 22 Oeste 36 Noroeste 0 -- -- 87
2020-07-18 15:00:00 24.6 23 Noroeste 39 Noroeste 0 -- -- 86
2020-07-18 14:00:00 24.5 21 Noroeste 33 Noroeste 0 -- -- 87
2020-07-18 13:00:00 23.7 24 Noroeste 34 Noroeste 0 -- -- 89
2020-07-18 12:00:00 23.8 18 Noroeste 31 Noroeste 0 -- -- 89
2020-07-18 11:00:00 23.5 21 Noroeste 34 Noroeste 0 -- -- 91
2020-07-18 10:00:00 23.5 18 Noroeste 25 Noroeste 0 -- -- 93
2020-07-18 09:00:00 22.8 15 Noroeste 26 Noroeste 0 -- -- 96
2020-07-18 08:00:00 22.1 17 Noroeste 26 Noroeste 0 -- -- 97
2020-07-18 07:00:00 21.9 17 Noroeste 31 Norte 0 -- -- 97
2020-07-18 06:00:00 22 21 Noroeste 29 Noroeste 0 -- -- 96
2020-07-18 05:00:00 21.9 14 Noroeste 22 Noroeste 0 -- -- 94
2020-07-18 04:00:00 22 13 Norte 26 Noroeste 0 -- -- 93
2020-07-18 03:00:00 21.9 18 Norte 27 Norte 0 -- -- 95
2020-07-18 02:00:00 21.9 20 Norte 31 Norte 0 -- -- 96
2020-07-18 01:00:00 21.9 26 Norte 41 Noroeste 0 -- -- 95
2020-07-18 00:00:00 21.9 23 Noroeste 35 Noroeste 0 -- -- 95
2020-07-17 23:00:00 22 28 Noroeste 37 Noroeste 0 -- -- 94
2020-07-17 22:00:00 22.2 23 Noroeste 36 Noroeste 0 -- -- 94
2020-07-17 21:00:00 22.5 21 Noroeste 30 Noroeste 0 -- -- 92
2020-07-17 20:00:00 22.9 22 Norte 39 Noroeste 0 -- -- 90
2020-07-17 19:00:00 22.9 24 Noroeste 39 Noroeste 0 -- -- 88
2020-07-17 18:00:00 23.4 23 Noroeste 39 Noroeste 0 -- -- 86
2020-07-17 17:00:00 23.6 20 Noroeste 32 Noroeste 0 -- -- 83
2020-07-17 16:00:00 24 25 Noroeste 43 Noroeste 0 -- -- 83
2020-07-17 15:00:00 23.8 27 Noroeste 33 Noroeste 0 -- -- 84
2020-07-17 14:00:00 23.5 25 Noroeste 36 Noroeste 0 -- -- 85
2020-07-17 13:00:00 23.1 22 Noroeste 32 Noroeste 0 -- -- 86
2020-07-17 12:00:00 23.1 23 Noroeste 32 Noroeste 0 -- -- 86
2020-07-17 11:00:00 22.9 19 Noroeste 35 Noroeste 0 -- -- 88
2020-07-17 10:00:00 22.9 19 Noroeste 27 Noroeste 0 -- -- 88
2020-07-17 09:00:00 21.8 18 Noroeste 28 Noroeste 0 -- -- 92
2020-07-17 08:00:00 21.1 21 Noroeste 30 Noroeste 0 -- -- 94
2020-07-17 07:00:00 20.9 21 Noroeste 28 Noroeste 0 -- -- 93
2020-07-17 06:00:00 21.1 18 Noroeste 23 Noroeste 0 -- -- 94
2020-07-17 05:00:00 21.3 14 Noroeste 22 Norte 0 -- -- 93
2020-07-17 04:00:00 21.7 17 Norte 23 Norte 0 -- -- 92
2020-07-17 03:00:00 21.7 16 Noroeste 21 Norte 0 -- -- 92
2020-07-17 02:00:00 21.8 17 Norte 26 Norte 0 -- -- 92
2020-07-17 01:00:00 21.8 4 Este 16 Este 0 -- -- 92
2020-07-17 00:00:00 22.5 18 Este 27 Norte 0 -- -- 91
2020-07-16 23:00:00 22.1 21 Norte 33 Noroeste 0 -- -- 91
2020-07-16 22:00:00 21.9 22 Noroeste 36 Noroeste 0 -- -- 90
2020-07-16 21:00:00 22 26 Noroeste 39 Noroeste 0 -- -- 89
2020-07-16 20:00:00 22.3 24 Noroeste 36 Noroeste 0 -- -- 86
2020-07-16 19:00:00 22.6 26 Noroeste 40 Noroeste 0 -- -- 83
2020-07-16 18:00:00 23.4 30 Noroeste 41 Noroeste 0 -- -- 81
2020-07-16 17:00:00 23.7 24 Noroeste 38 Noroeste 0 -- -- 78
2020-07-16 16:00:00 23.8 26 Noroeste 35 Noroeste 0 -- -- 77
2020-07-16 15:00:00 23.8 22 Noroeste 32 Noroeste 0 -- -- 77
2020-07-16 14:00:00 23.9 23 Noroeste 35 Noroeste 0 -- -- 80
2020-07-16 13:00:00 23.5 24 Noroeste 32 Norte 0 -- -- 83
2020-07-16 12:00:00 23.3 22 Noroeste 30 Noroeste 0 -- -- 84
2020-07-16 11:00:00 23.3 18 Norte 28 Noroeste 0 -- -- 84
2020-07-16 10:00:00 22.9 21 Norte 32 Norte 0 -- -- 87
2020-07-16 09:00:00 22.1 21 Norte 37 Norte 0 -- -- 90
2020-07-16 08:00:00 21.3 27 Norte 37 Norte 0 -- -- 92
2020-07-16 07:00:00 21.2 19 Norte 25 Norte 0 -- -- 91
2020-07-16 06:00:00 21.4 12 Norte 24 Norte 0 -- -- 90
2020-07-16 05:00:00 21.6 20 Norte 31 Norte 0 -- -- 91
2020-07-16 04:00:00 21.6 17 Norte 24 Norte 0 -- -- 91
2020-07-16 03:00:00 21.8 14 Norte 20 Norte 0 -- -- 90
2020-07-16 02:00:00 21.9 14 Norte 31 Norte 0 -- -- 90
2020-07-16 01:00:00 21.8 26 Norte 38 Norte 0 -- -- 91
2020-07-16 00:00:00 21.9 28 Norte 39 Norte 0 -- -- 91
2020-07-15 23:00:00 21.9 31 Norte 48 Norte 0 -- -- 91
2020-07-15 22:00:00 22 33 Norte 45 Norte 0 -- -- 90
2020-07-15 21:00:00 22.3 31 Norte 43 Norte 0 -- -- 88
2020-07-15 20:00:00 22.9 30 Norte 41 Norte 0 -- -- 86
2020-07-15 19:00:00 23.3 32 Norte 48 Noroeste 0 -- -- 85
2020-07-15 18:00:00 23.6 33 Norte 51 Norte 0 -- -- 84
2020-07-15 17:00:00 24.2 31 Norte 44 Noroeste 0 -- -- 83
2020-07-15 16:00:00 24 35 Norte 58 Norte 0 -- -- 84
2020-07-15 15:00:00 24 36 Noroeste 47 Noroeste 0 -- -- 84
2020-07-15 14:00:00 23.8 34 Noroeste 55 Noroeste 0 -- -- 85
2020-07-15 13:00:00 23.6 35 Noroeste 51 Norte 0 -- -- 86
2020-07-15 12:00:00 23.4 34 Norte 45 Noroeste 0 -- -- 87
2020-07-15 11:00:00 23.5 27 Norte 38 Noroeste 0 -- -- 87
2020-07-15 10:00:00 23.2 28 Norte 37 Norte 0 -- -- 89
2020-07-15 09:00:00 22.5 29 Norte 38 Norte 0 -- -- 92
2020-07-15 08:00:00 22 31 Norte 42 Norte 0 -- -- 93
2020-07-15 07:00:00 21.7 25 Norte 39 Norte 0 -- -- 94
2020-07-15 06:00:00 21.6 31 Norte 48 Norte 0 -- -- 95
2020-07-15 05:00:00 21.5 32 Norte 45 Norte 0 -- -- 95
2020-07-15 04:00:00 21.7 27 Norte 36 Norte 0 -- -- 93
2020-07-15 03:00:00 21.7 25 Noroeste 37 Noroeste 0 -- -- 94
2020-07-15 02:00:00 21.6 24 Norte 39 Norte 0 -- -- 93
2020-07-15 01:00:00 21.7 27 Noroeste 46 Norte 0 -- -- 91
2020-07-15 00:00:00 21.8 30 Noroeste 48 Noroeste 0 -- -- 91
2020-07-14 23:00:00 21.9 27 Noroeste 42 Noroeste 0 -- -- 92
2020-07-14 22:00:00 22.1 28 Noroeste 40 Noroeste 0 -- -- 92
2020-07-14 21:00:00 22.2 26 Noroeste 45 Noroeste 0 -- -- 91
2020-07-14 20:00:00 22.7 27 Noroeste 44 Noroeste 0 -- -- 88
2020-07-14 19:00:00 23.1 31 Noroeste 45 Noroeste 0 -- -- 87
2020-07-14 18:00:00 23.5 32 Noroeste 44 Noroeste 0 -- -- 84
2020-07-14 17:00:00 23.8 27 Noroeste 44 Noroeste 0 -- -- 82
2020-07-14 16:00:00 23.7 32 Noroeste 44 Noroeste 0 -- -- 81
2020-07-14 15:00:00 23.8 30 Noroeste 44 Noroeste 0 -- -- 81
2020-07-14 14:00:00 23.7 31 Noroeste 45 Noroeste 0 -- -- 81
2020-07-14 13:00:00 23.7 30 Noroeste 39 Noroeste 0 -- -- 80
2020-07-14 12:00:00 23.6 27 Noroeste 42 Noroeste 0 -- -- 80
2020-07-14 11:00:00 23.1 29 Noroeste 46 Noroeste 0 -- -- 83
2020-07-14 10:00:00 22.2 29 Norte 40 Norte 0 -- -- 86
2020-07-14 09:00:00 21.9 29 Norte 45 Noroeste 0 -- -- 85
2020-07-14 08:00:00 21.6 31 Norte 42 Norte 0 -- -- 86
2020-07-14 07:00:00 21.4 29 Noroeste 43 Noroeste 0 -- -- 86
2020-07-14 06:00:00 21.3 27 Norte 42 Noroeste 0 -- -- 86
2020-07-14 05:00:00 21.2 28 Norte 40 Norte 0 -- -- 87
2020-07-14 04:00:00 21.3 30 Norte 42 Noroeste 0 -- -- 87
2020-07-14 03:00:00 21.2 31 Norte 41 Norte 0 -- -- 86
2020-07-14 02:00:00 21.2 27 Norte 39 Norte 0 -- -- 88
2020-07-14 01:00:00 21.3 28 Norte 46 Norte 0 -- -- 87
2020-07-14 00:00:00 21.5 30 Norte 42 Norte 0 -- -- 88